sensor_id;sensor_type;location;lat;lon;timestamp;P1;durP1;ratioP1;P2;durP2;ratioP2
26690;SDS011;14307;51.718;8.938;2024-03-02T00:00:20;28.40;;;25.27;;
26690;SDS011;14307;51.718;8.938;2024-03-02T00:02:48;30.63;;;25.90;;
26690;SDS011;14307;51.718;8.938;2024-03-02T00:05:16;34.92;;;24.40;;
26690;SDS011;14307;51.718;8.938;2024-03-02T00:07:52;28.30;;;22.90;;
26690;SDS011;14307;51.718;8.938;2024-03-02T00:10:33;29.23;;;24.77;;
26690;SDS011;14307;51.718;8.938;2024-03-02T00:13:06;26.13;;;22.23;;
26690;SDS011;14307;51.718;8.938;2024-03-02T00:15:47;28.25;;;23.08;;
26690;SDS011;14307;51.718;8.938;2024-03-02T00:18:31;27.38;;;23.40;;
26690;SDS011;14307;51.718;8.938;2024-03-02T00:21:00;34.10;;;24.17;;
26690;SDS011;14307;51.718;8.938;2024-03-02T00:23:32;32.92;;;25.85;;
26690;SDS011;14307;51.718;8.938;2024-03-02T00:26:01;29.40;;;24.30;;
26690;SDS011;14307;51.718;8.938;2024-03-02T00:36:16;28.52;;;23.85;;
26690;SDS011;14307;51.718;8.938;2024-03-02T00:38:49;26.77;;;23.25;;
26690;SDS011;14307;51.718;8.938;2024-03-02T00:41:21;31.90;;;24.58;;
26690;SDS011;14307;51.718;8.938;2024-03-02T00:46:23;27.15;;;23.17;;
26690;SDS011;14307;51.718;8.938;2024-03-02T00:48:52;27.80;;;23.52;;
26690;SDS011;14307;51.718;8.938;2024-03-02T00:51:21;28.73;;;23.42;;
26690;SDS011;14307;51.718;8.938;2024-03-02T00:53:50;28.45;;;23.02;;
26690;SDS011;14307;51.718;8.938;2024-03-02T00:56:19;29.05;;;22.80;;
26690;SDS011;14307;51.718;8.938;2024-03-02T00:58:45;33.40;;;23.70;;
26690;SDS011;14307;51.718;8.938;2024-03-02T01:01:12;27.17;;;22.90;;
26690;SDS011;14307;51.718;8.938;2024-03-02T01:03:39;32.67;;;24.35;;
26690;SDS011;14307;51.718;8.938;2024-03-02T01:06:07;32.13;;;24.52;;
26690;SDS011;14307;51.718;8.938;2024-03-02T01:08:35;35.42;;;23.88;;
26690;SDS011;14307;51.718;8.938;2024-03-02T01:11:02;28.70;;;23.17;;
26690;SDS011;14307;51.718;8.938;2024-03-02T01:13:29;27.88;;;22.08;;
26690;SDS011;14307;51.718;8.938;2024-03-02T01:15:57;31.48;;;23.17;;
26690;SDS011;14307;51.718;8.938;2024-03-02T01:18:24;27.80;;;21.95;;
26690;SDS011;14307;51.718;8.938;2024-03-02T01:20:51;28.17;;;22.05;;
26690;SDS011;14307;51.718;8.938;2024-03-02T01:23:19;29.60;;;23.65;;
26690;SDS011;14307;51.718;8.938;2024-03-02T01:25:46;31.08;;;23.27;;
26690;SDS011;14307;51.718;8.938;2024-03-02T01:28:14;26.08;;;22.13;;
26690;SDS011;14307;51.718;8.938;2024-03-02T01:30:41;29.45;;;22.80;;
26690;SDS011;14307;51.718;8.938;2024-03-02T01:33:08;29.92;;;23.45;;
26690;SDS011;14307;51.718;8.938;2024-03-02T01:35:35;27.65;;;22.00;;
26690;SDS011;14307;51.718;8.938;2024-03-02T01:38:03;28.67;;;22.52;;
26690;SDS011;14307;51.718;8.938;2024-03-02T01:40:35;30.45;;;22.80;;
26690;SDS011;14307;51.718;8.938;2024-03-02T01:43:04;26.92;;;21.58;;
26690;SDS011;14307;51.718;8.938;2024-03-02T01:45:31;27.15;;;21.10;;
26690;SDS011;14307;51.718;8.938;2024-03-02T01:47:58;28.58;;;22.90;;
26690;SDS011;14307;51.718;8.938;2024-03-02T01:50:29;31.17;;;24.17;;
26690;SDS011;14307;51.718;8.938;2024-03-02T01:52:58;29.27;;;22.42;;
26690;SDS011;14307;51.718;8.938;2024-03-02T01:55:26;31.67;;;22.88;;
26690;SDS011;14307;51.718;8.938;2024-03-02T01:57:55;31.90;;;22.83;;
26690;SDS011;14307;51.718;8.938;2024-03-02T02:00:22;30.35;;;22.02;;
26690;SDS011;14307;51.718;8.938;2024-03-02T02:02:52;33.20;;;24.38;;
26690;SDS011;14307;51.718;8.938;2024-03-02T02:05:20;31.25;;;24.40;;
26690;SDS011;14307;51.718;8.938;2024-03-02T02:07:47;34.47;;;23.95;;
26690;SDS011;14307;51.718;8.938;2024-03-02T02:10:14;35.10;;;24.92;;
26690;SDS011;14307;51.718;8.938;2024-03-02T02:12:41;33.10;;;24.63;;
26690;SDS011;14307;51.718;8.938;2024-03-02T02:15:27;33.58;;;24.27;;
26690;SDS011;14307;51.718;8.938;2024-03-02T02:17:55;30.48;;;23.08;;
26690;SDS011;14307;51.718;8.938;2024-03-02T02:20:24;34.42;;;24.67;;
26690;SDS011;14307;51.718;8.938;2024-03-02T02:25:26;35.70;;;24.02;;
26690;SDS011;14307;51.718;8.938;2024-03-02T02:27:54;29.48;;;20.23;;
26690;SDS011;14307;51.718;8.938;2024-03-02T02:30:22;33.40;;;23.45;;
26690;SDS011;14307;51.718;8.938;2024-03-02T02:32:51;38.67;;;24.02;;
26690;SDS011;14307;51.718;8.938;2024-03-02T02:35:18;33.70;;;25.42;;
26690;SDS011;14307;51.718;8.938;2024-03-02T02:37:45;38.92;;;25.73;;
26690;SDS011;14307;51.718;8.938;2024-03-02T02:40:13;35.10;;;24.88;;
26690;SDS011;14307;51.718;8.938;2024-03-02T02:42:41;33.70;;;21.92;;
26690;SDS011;14307;51.718;8.938;2024-03-02T02:45:08;34.10;;;24.23;;
26690;SDS011;14307;51.718;8.938;2024-03-02T02:47:35;35.67;;;25.42;;
26690;SDS011;14307;51.718;8.938;2024-03-02T02:50:02;36.30;;;25.92;;
26690;SDS011;14307;51.718;8.938;2024-03-02T02:52:31;37.03;;;25.20;;
26690;SDS011;14307;51.718;8.938;2024-03-02T02:54:59;41.70;;;26.20;;
26690;SDS011;14307;51.718;8.938;2024-03-02T02:57:29;39.20;;;25.77;;
26690;SDS011;14307;51.718;8.938;2024-03-02T02:59:57;36.72;;;24.98;;
26690;SDS011;14307;51.718;8.938;2024-03-02T03:02:24;35.22;;;24.92;;
26690;SDS011;14307;51.718;8.938;2024-03-02T03:04:54;37.92;;;25.58;;
26690;SDS011;14307;51.718;8.938;2024-03-02T03:07:23;36.17;;;24.83;;
26690;SDS011;14307;51.718;8.938;2024-03-02T03:09:50;37.63;;;25.02;;
26690;SDS011;14307;51.718;8.938;2024-03-02T03:12:17;40.33;;;26.50;;
26690;SDS011;14307;51.718;8.938;2024-03-02T03:14:43;40.58;;;26.67;;
26690;SDS011;14307;51.718;8.938;2024-03-02T03:17:10;39.33;;;26.50;;
26690;SDS011;14307;51.718;8.938;2024-03-02T03:19:38;43.10;;;25.75;;
26690;SDS011;14307;51.718;8.938;2024-03-02T03:22:05;41.63;;;26.05;;
26690;SDS011;14307;51.718;8.938;2024-03-02T03:24:32;39.53;;;27.25;;
26690;SDS011;14307;51.718;8.938;2024-03-02T03:26:59;40.72;;;27.48;;
26690;SDS011;14307;51.718;8.938;2024-03-02T03:29:26;39.08;;;27.23;;
26690;SDS011;14307;51.718;8.938;2024-03-02T03:31:53;41.22;;;28.15;;
26690;SDS011;14307;51.718;8.938;2024-03-02T03:34:19;43.85;;;26.90;;
26690;SDS011;14307;51.718;8.938;2024-03-02T03:36:46;44.55;;;28.30;;
26690;SDS011;14307;51.718;8.938;2024-03-02T03:39:13;42.95;;;27.17;;
26690;SDS011;14307;51.718;8.938;2024-03-02T03:41:40;42.72;;;25.48;;
26690;SDS011;14307;51.718;8.938;2024-03-02T03:44:07;41.00;;;26.63;;
26690;SDS011;14307;51.718;8.938;2024-03-02T03:46:34;44.03;;;29.13;;
26690;SDS011;14307;51.718;8.938;2024-03-02T03:49:01;45.50;;;27.58;;
26690;SDS011;14307;51.718;8.938;2024-03-02T03:51:30;40.88;;;26.90;;
26690;SDS011;14307;51.718;8.938;2024-03-02T03:53:56;41.88;;;27.02;;
26690;SDS011;14307;51.718;8.938;2024-03-02T03:56:24;43.08;;;27.90;;
26690;SDS011;14307;51.718;8.938;2024-03-02T03:58:50;40.72;;;26.95;;
26690;SDS011;14307;51.718;8.938;2024-03-02T04:01:17;43.20;;;27.42;;
26690;SDS011;14307;51.718;8.938;2024-03-02T04:03:44;44.50;;;26.65;;
26690;SDS011;14307;51.718;8.938;2024-03-02T04:06:11;39.92;;;26.83;;
26690;SDS011;14307;51.718;8.938;2024-03-02T04:08:41;44.22;;;27.10;;
26690;SDS011;14307;51.718;8.938;2024-03-02T04:11:08;40.63;;;28.00;;
26690;SDS011;14307;51.718;8.938;2024-03-02T04:13:35;37.58;;;26.67;;
26690;SDS011;14307;51.718;8.938;2024-03-02T04:16:01;40.35;;;27.00;;
26690;SDS011;14307;51.718;8.938;2024-03-02T04:18:30;41.67;;;26.67;;
26690;SDS011;14307;51.718;8.938;2024-03-02T04:20:58;39.15;;;26.45;;
26690;SDS011;14307;51.718;8.938;2024-03-02T04:23:26;41.95;;;26.52;;
26690;SDS011;14307;51.718;8.938;2024-03-02T04:25:53;43.13;;;24.40;;
26690;SDS011;14307;51.718;8.938;2024-03-02T04:28:20;45.72;;;27.13;;
26690;SDS011;14307;51.718;8.938;2024-03-02T04:30:47;44.60;;;28.20;;
26690;SDS011;14307;51.718;8.938;2024-03-02T04:33:14;44.65;;;27.05;;
26690;SDS011;14307;51.718;8.938;2024-03-02T04:35:41;44.95;;;28.17;;
26690;SDS011;14307;51.718;8.938;2024-03-02T04:38:08;44.85;;;28.17;;
26690;SDS011;14307;51.718;8.938;2024-03-02T04:40:35;48.65;;;27.75;;
26690;SDS011;14307;51.718;8.938;2024-03-02T04:43:02;46.60;;;28.42;;
26690;SDS011;14307;51.718;8.938;2024-03-02T04:45:29;52.63;;;28.15;;
26690;SDS011;14307;51.718;8.938;2024-03-02T04:47:56;51.13;;;29.77;;
26690;SDS011;14307;51.718;8.938;2024-03-02T04:50:23;50.80;;;29.08;;
26690;SDS011;14307;51.718;8.938;2024-03-02T04:52:50;50.95;;;29.77;;
26690;SDS011;14307;51.718;8.938;2024-03-02T04:55:17;55.58;;;30.25;;
26690;SDS011;14307;51.718;8.938;2024-03-02T04:57:53;52.05;;;27.73;;
26690;SDS011;14307;51.718;8.938;2024-03-02T05:00:23;53.28;;;30.73;;
26690;SDS011;14307;51.718;8.938;2024-03-02T05:02:50;58.45;;;30.63;;
26690;SDS011;14307;51.718;8.938;2024-03-02T05:05:17;49.90;;;28.92;;
26690;SDS011;14307;51.718;8.938;2024-03-02T05:07:44;51.50;;;28.75;;
26690;SDS011;14307;51.718;8.938;2024-03-02T05:10:11;55.25;;;31.48;;
26690;SDS011;14307;51.718;8.938;2024-03-02T05:12:38;55.50;;;29.15;;
26690;SDS011;14307;51.718;8.938;2024-03-02T05:15:12;59.95;;;32.10;;
26690;SDS011;14307;51.718;8.938;2024-03-02T05:17:41;57.10;;;30.48;;
26690;SDS011;14307;51.718;8.938;2024-03-02T05:20:12;57.72;;;28.85;;
26690;SDS011;14307;51.718;8.938;2024-03-02T05:22:39;57.33;;;32.50;;
26690;SDS011;14307;51.718;8.938;2024-03-02T05:25:06;55.08;;;29.55;;
26690;SDS011;14307;51.718;8.938;2024-03-02T05:27:33;59.20;;;32.05;;
26690;SDS011;14307;51.718;8.938;2024-03-02T05:30:00;56.35;;;29.33;;
26690;SDS011;14307;51.718;8.938;2024-03-02T05:32:28;46.03;;;25.60;;
26690;SDS011;14307;51.718;8.938;2024-03-02T05:34:55;63.83;;;31.77;;
26690;SDS011;14307;51.718;8.938;2024-03-02T05:37:22;65.13;;;32.97;;
26690;SDS011;14307;51.718;8.938;2024-03-02T05:39:49;66.50;;;36.38;;
26690;SDS011;14307;51.718;8.938;2024-03-02T05:42:16;74.07;;;35.72;;
26690;SDS011;14307;51.718;8.938;2024-03-02T05:44:45;67.38;;;36.40;;
26690;SDS011;14307;51.718;8.938;2024-03-02T05:47:12;71.70;;;35.28;;
26690;SDS011;14307;51.718;8.938;2024-03-02T05:49:39;67.25;;;34.58;;
26690;SDS011;14307;51.718;8.938;2024-03-02T05:52:06;69.05;;;36.45;;
26690;SDS011;14307;51.718;8.938;2024-03-02T05:54:33;64.80;;;34.45;;
26690;SDS011;14307;51.718;8.938;2024-03-02T05:57:00;68.25;;;36.30;;
26690;SDS011;14307;51.718;8.938;2024-03-02T05:59:43;66.97;;;33.65;;
26690;SDS011;14307;51.718;8.938;2024-03-02T06:02:10;67.80;;;36.00;;
26690;SDS011;14307;51.718;8.938;2024-03-02T06:04:37;75.18;;;38.33;;
26690;SDS011;14307;51.718;8.938;2024-03-02T06:07:03;71.68;;;37.08;;
26690;SDS011;14307;51.718;8.938;2024-03-02T06:09:30;83.25;;;40.30;;
26690;SDS011;14307;51.718;8.938;2024-03-02T06:11:57;83.00;;;41.00;;
26690;SDS011;14307;51.718;8.938;2024-03-02T06:14:24;77.78;;;40.33;;
26690;SDS011;14307;51.718;8.938;2024-03-02T06:16:51;78.97;;;39.08;;
26690;SDS011;14307;51.718;8.938;2024-03-02T06:19:18;75.50;;;38.22;;
26690;SDS011;14307;51.718;8.938;2024-03-02T06:21:45;77.57;;;39.20;;
26690;SDS011;14307;51.718;8.938;2024-03-02T06:24:12;77.20;;;39.47;;
26690;SDS011;14307;51.718;8.938;2024-03-02T06:26:38;78.75;;;39.53;;
26690;SDS011;14307;51.718;8.938;2024-03-02T06:29:06;77.63;;;39.35;;
26690;SDS011;14307;51.718;8.938;2024-03-02T06:31:34;77.10;;;41.80;;
26690;SDS011;14307;51.718;8.938;2024-03-02T06:34:01;67.93;;;34.08;;
26690;SDS011;14307;51.718;8.938;2024-03-02T06:36:30;67.82;;;35.15;;
26690;SDS011;14307;51.718;8.938;2024-03-02T06:38:57;70.60;;;37.42;;
26690;SDS011;14307;51.718;8.938;2024-03-02T06:41:23;77.85;;;38.13;;
26690;SDS011;14307;51.718;8.938;2024-03-02T06:43:50;66.63;;;36.33;;
26690;SDS011;14307;51.718;8.938;2024-03-02T06:46:26;66.85;;;36.78;;
26690;SDS011;14307;51.718;8.938;2024-03-02T06:48:53;62.88;;;34.92;;
26690;SDS011;14307;51.718;8.938;2024-03-02T06:51:20;62.08;;;33.22;;
26690;SDS011;14307;51.718;8.938;2024-03-02T06:53:47;67.13;;;36.17;;
26690;SDS011;14307;51.718;8.938;2024-03-02T06:56:13;64.07;;;33.45;;
26690;SDS011;14307;51.718;8.938;2024-03-02T06:58:40;57.90;;;28.90;;
26690;SDS011;14307;51.718;8.938;2024-03-02T07:01:09;62.72;;;33.88;;
26690;SDS011;14307;51.718;8.938;2024-03-02T07:03:37;61.28;;;34.78;;
26690;SDS011;14307;51.718;8.938;2024-03-02T07:06:05;60.85;;;34.40;;
26690;SDS011;14307;51.718;8.938;2024-03-02T07:08:33;61.50;;;32.53;;
26690;SDS011;14307;51.718;8.938;2024-03-02T07:11:00;57.05;;;32.83;;
26690;SDS011;14307;51.718;8.938;2024-03-02T07:13:27;61.72;;;35.10;;
26690;SDS011;14307;51.718;8.938;2024-03-02T07:15:54;61.17;;;33.58;;
26690;SDS011;14307;51.718;8.938;2024-03-02T07:18:27;54.38;;;31.10;;
26690;SDS011;14307;51.718;8.938;2024-03-02T07:20:55;52.17;;;29.67;;
26690;SDS011;14307;51.718;8.938;2024-03-02T07:23:24;53.65;;;30.48;;
26690;SDS011;14307;51.718;8.938;2024-03-02T07:25:53;63.08;;;34.45;;
26690;SDS011;14307;51.718;8.938;2024-03-02T07:28:26;56.80;;;34.25;;
26690;SDS011;14307;51.718;8.938;2024-03-02T07:30:59;50.83;;;30.13;;
26690;SDS011;14307;51.718;8.938;2024-03-02T07:33:28;55.58;;;30.95;;
26690;SDS011;14307;51.718;8.938;2024-03-02T07:35:56;57.03;;;32.63;;
26690;SDS011;14307;51.718;8.938;2024-03-02T07:38:28;48.75;;;27.75;;
26690;SDS011;14307;51.718;8.938;2024-03-02T07:40:55;52.78;;;30.85;;
26690;SDS011;14307;51.718;8.938;2024-03-02T07:43:22;56.60;;;33.38;;
26690;SDS011;14307;51.718;8.938;2024-03-02T07:45:49;48.30;;;30.50;;
26690;SDS011;14307;51.718;8.938;2024-03-02T07:48:16;47.58;;;28.48;;
26690;SDS011;14307;51.718;8.938;2024-03-02T07:50:44;56.88;;;32.72;;
26690;SDS011;14307;51.718;8.938;2024-03-02T07:53:10;52.00;;;29.73;;
26690;SDS011;14307;51.718;8.938;2024-03-02T07:55:37;49.92;;;27.83;;
26690;SDS011;14307;51.718;8.938;2024-03-02T07:58:04;47.22;;;28.27;;
26690;SDS011;14307;51.718;8.938;2024-03-02T08:00:31;58.15;;;33.63;;
26690;SDS011;14307;51.718;8.938;2024-03-02T08:02:59;49.60;;;30.90;;
26690;SDS011;14307;51.718;8.938;2024-03-02T08:05:27;53.72;;;31.45;;
26690;SDS011;14307;51.718;8.938;2024-03-02T08:07:54;50.03;;;33.08;;
26690;SDS011;14307;51.718;8.938;2024-03-02T08:10:21;46.00;;;29.65;;
26690;SDS011;14307;51.718;8.938;2024-03-02T08:12:48;42.55;;;29.08;;
26690;SDS011;14307;51.718;8.938;2024-03-02T08:15:15;51.67;;;30.80;;
26690;SDS011;14307;51.718;8.938;2024-03-02T08:17:42;46.17;;;29.17;;
26690;SDS011;14307;51.718;8.938;2024-03-02T08:20:11;46.88;;;30.30;;
26690;SDS011;14307;51.718;8.938;2024-03-02T08:22:39;49.33;;;33.42;;
26690;SDS011;14307;51.718;8.938;2024-03-02T08:25:06;49.30;;;32.03;;
26690;SDS011;14307;51.718;8.938;2024-03-02T08:27:34;49.08;;;32.63;;
26690;SDS011;14307;51.718;8.938;2024-03-02T08:30:02;52.08;;;33.85;;
26690;SDS011;14307;51.718;8.938;2024-03-02T08:32:32;46.53;;;31.98;;
26690;SDS011;14307;51.718;8.938;2024-03-02T08:34:59;46.17;;;32.28;;
26690;SDS011;14307;51.718;8.938;2024-03-02T08:37:28;56.38;;;33.85;;
26690;SDS011;14307;51.718;8.938;2024-03-02T08:39:55;42.78;;;30.55;;
26690;SDS011;14307;51.718;8.938;2024-03-02T08:42:22;49.78;;;31.75;;
26690;SDS011;14307;51.718;8.938;2024-03-02T08:44:49;47.08;;;31.50;;
26690;SDS011;14307;51.718;8.938;2024-03-02T08:47:16;46.15;;;32.95;;
26690;SDS011;14307;51.718;8.938;2024-03-02T08:49:43;41.63;;;31.25;;
26690;SDS011;14307;51.718;8.938;2024-03-02T08:52:10;39.33;;;31.75;;
26690;SDS011;14307;51.718;8.938;2024-03-02T08:54:37;41.03;;;30.77;;
26690;SDS011;14307;51.718;8.938;2024-03-02T08:57:04;36.22;;;30.70;;
26690;SDS011;14307;51.718;8.938;2024-03-02T08:59:32;33.33;;;29.70;;
26690;SDS011;14307;51.718;8.938;2024-03-02T09:01:59;34.88;;;30.70;;
26690;SDS011;14307;51.718;8.938;2024-03-02T09:04:27;33.13;;;29.05;;
26690;SDS011;14307;51.718;8.938;2024-03-02T09:06:59;31.33;;;28.23;;
26690;SDS011;14307;51.718;8.938;2024-03-02T09:09:27;34.17;;;30.80;;
26690;SDS011;14307;51.718;8.938;2024-03-02T09:11:54;38.58;;;32.58;;
26690;SDS011;14307;51.718;8.938;2024-03-02T09:14:24;40.38;;;36.03;;
26690;SDS011;14307;51.718;8.938;2024-03-02T09:16:50;36.88;;;33.22;;
26690;SDS011;14307;51.718;8.938;2024-03-02T09:19:17;39.22;;;35.60;;
26690;SDS011;14307;51.718;8.938;2024-03-02T09:21:45;41.55;;;37.92;;
26690;SDS011;14307;51.718;8.938;2024-03-02T09:24:11;45.60;;;41.83;;
26690;SDS011;14307;51.718;8.938;2024-03-02T09:26:43;42.72;;;38.95;;
26690;SDS011;14307;51.718;8.938;2024-03-02T09:29:10;43.90;;;40.10;;
26690;SDS011;14307;51.718;8.938;2024-03-02T09:31:41;41.20;;;37.75;;
26690;SDS011;14307;51.718;8.938;2024-03-02T09:34:08;34.55;;;30.95;;
26690;SDS011;14307;51.718;8.938;2024-03-02T10:14:44;38.22;;;35.38;;
26690;SDS011;14307;51.718;8.938;2024-03-02T10:17:13;37.53;;;34.75;;
26690;SDS011;14307;51.718;8.938;2024-03-02T10:19:40;38.58;;;35.60;;
26690;SDS011;14307;51.718;8.938;2024-03-02T10:22:08;39.15;;;36.42;;
26690;SDS011;14307;51.718;8.938;2024-03-02T10:24:37;38.78;;;35.90;;
26690;SDS011;14307;51.718;8.938;2024-03-02T10:27:15;38.17;;;35.28;;
26690;SDS011;14307;51.718;8.938;2024-03-02T10:29:50;39.73;;;36.73;;
26690;SDS011;14307;51.718;8.938;2024-03-02T10:32:16;40.35;;;37.42;;
26690;SDS011;14307;51.718;8.938;2024-03-02T10:34:44;38.20;;;35.00;;
26690;SDS011;14307;51.718;8.938;2024-03-02T10:37:12;43.65;;;40.35;;
26690;SDS011;14307;51.718;8.938;2024-03-02T10:39:40;39.65;;;36.60;;
26690;SDS011;14307;51.718;8.938;2024-03-02T10:42:07;35.80;;;32.90;;
26690;SDS011;14307;51.718;8.938;2024-03-02T10:44:35;36.13;;;33.42;;
26690;SDS011;14307;51.718;8.938;2024-03-02T10:47:03;41.83;;;38.92;;
26690;SDS011;14307;51.718;8.938;2024-03-02T10:49:32;43.67;;;40.75;;
26690;SDS011;14307;51.718;8.938;2024-03-02T10:51:59;43.47;;;40.53;;
26690;SDS011;14307;51.718;8.938;2024-03-02T10:54:28;43.75;;;40.78;;
26690;SDS011;14307;51.718;8.938;2024-03-02T10:57:02;46.87;;;43.57;;
26690;SDS011;14307;51.718;8.938;2024-03-02T10:59:35;51.55;;;47.78;;
26690;SDS011;14307;51.718;8.938;2024-03-02T11:02:06;48.25;;;44.78;;
26690;SDS011;14307;51.718;8.938;2024-03-02T11:04:37;49.65;;;46.10;;
26690;SDS011;14307;51.718;8.938;2024-03-02T11:07:07;45.85;;;42.75;;
26690;SDS011;14307;51.718;8.938;2024-03-02T11:09:45;45.40;;;42.30;;
26690;SDS011;14307;51.718;8.938;2024-03-02T11:12:27;42.95;;;40.15;;
26690;SDS011;14307;51.718;8.938;2024-03-02T11:14:55;44.85;;;42.05;;
26690;SDS011;14307;51.718;8.938;2024-03-02T11:17:23;44.28;;;41.28;;
26690;SDS011;14307;51.718;8.938;2024-03-02T11:19:51;44.70;;;41.80;;
26690;SDS011;14307;51.718;8.938;2024-03-02T11:22:19;46.08;;;42.78;;
26690;SDS011;14307;51.718;8.938;2024-03-02T11:24:47;42.78;;;39.92;;
26690;SDS011;14307;51.718;8.938;2024-03-02T11:27:20;42.58;;;39.83;;
26690;SDS011;14307;51.718;8.938;2024-03-02T11:35:41;44.28;;;41.38;;
26690;SDS011;14307;51.718;8.938;2024-03-02T11:38:09;42.67;;;39.85;;
26690;SDS011;14307;51.718;8.938;2024-03-02T11:40:38;44.85;;;41.95;;
26690;SDS011;14307;51.718;8.938;2024-03-02T11:43:06;44.85;;;41.88;;
26690;SDS011;14307;51.718;8.938;2024-03-02T11:45:37;42.78;;;39.97;;
26690;SDS011;14307;51.718;8.938;2024-03-02T11:48:08;44.97;;;42.28;;
26690;SDS011;14307;51.718;8.938;2024-03-02T11:50:40;46.65;;;43.90;;
26690;SDS011;14307;51.718;8.938;2024-03-02T11:53:16;45.55;;;42.72;;
26690;SDS011;14307;51.718;8.938;2024-03-02T11:55:44;46.17;;;43.35;;
26690;SDS011;14307;51.718;8.938;2024-03-02T11:58:14;47.97;;;45.00;;
26690;SDS011;14307;51.718;8.938;2024-03-02T12:00:47;46.33;;;43.42;;
26690;SDS011;14307;51.718;8.938;2024-03-02T12:03:17;48.33;;;45.28;;
26690;SDS011;14307;51.718;8.938;2024-03-02T12:05:44;44.95;;;42.30;;
26690;SDS011;14307;51.718;8.938;2024-03-02T12:08:16;45.25;;;42.45;;
26690;SDS011;14307;51.718;8.938;2024-03-02T12:10:43;50.97;;;47.95;;
26690;SDS011;14307;51.718;8.938;2024-03-02T12:13:29;48.72;;;45.95;;
26690;SDS011;14307;51.718;8.938;2024-03-02T12:15:56;48.03;;;45.15;;
26690;SDS011;14307;51.718;8.938;2024-03-02T12:18:24;46.97;;;44.17;;
26690;SDS011;14307;51.718;8.938;2024-03-02T12:20:52;47.55;;;44.75;;
26690;SDS011;14307;51.718;8.938;2024-03-02T12:23:19;49.65;;;46.65;;
26690;SDS011;14307;51.718;8.938;2024-03-02T12:25:46;48.92;;;46.13;;
26690;SDS011;14307;51.718;8.938;2024-03-02T12:28:13;49.70;;;46.88;;
26690;SDS011;14307;51.718;8.938;2024-03-02T12:30:41;49.67;;;46.67;;
26690;SDS011;14307;51.718;8.938;2024-03-02T12:33:09;49.38;;;46.53;;
26690;SDS011;14307;51.718;8.938;2024-03-02T12:35:37;51.38;;;48.47;;
26690;SDS011;14307;51.718;8.938;2024-03-02T12:38:06;51.80;;;48.97;;
26690;SDS011;14307;51.718;8.938;2024-03-02T12:40:33;50.55;;;47.75;;
26690;SDS011;14307;51.718;8.938;2024-03-02T12:43:00;48.35;;;45.85;;
26690;SDS011;14307;51.718;8.938;2024-03-02T12:45:27;52.47;;;49.47;;
26690;SDS011;14307;51.718;8.938;2024-03-02T12:47:55;50.78;;;48.20;;
26690;SDS011;14307;51.718;8.938;2024-03-02T12:50:22;49.40;;;47.00;;
26690;SDS011;14307;51.718;8.938;2024-03-02T12:52:52;47.33;;;45.13;;
26690;SDS011;14307;51.718;8.938;2024-03-02T12:55:20;47.38;;;45.15;;
26690;SDS011;14307;51.718;8.938;2024-03-02T12:57:49;49.25;;;46.85;;
26690;SDS011;14307;51.718;8.938;2024-03-02T13:00:18;48.63;;;46.28;;
26690;SDS011;14307;51.718;8.938;2024-03-02T13:02:46;48.58;;;46.17;;
26690;SDS011;14307;51.718;8.938;2024-03-02T13:05:15;49.83;;;47.13;;
26690;SDS011;14307;51.718;8.938;2024-03-02T13:07:42;49.22;;;46.63;;
26690;SDS011;14307;51.718;8.938;2024-03-02T13:10:12;48.67;;;46.15;;
26690;SDS011;14307;51.718;8.938;2024-03-02T13:12:39;49.42;;;46.80;;
26690;SDS011;14307;51.718;8.938;2024-03-02T13:15:06;51.83;;;48.83;;
26690;SDS011;14307;51.718;8.938;2024-03-02T13:17:35;48.55;;;45.95;;
26690;SDS011;14307;51.718;8.938;2024-03-02T13:20:04;49.90;;;47.20;;
26690;SDS011;14307;51.718;8.938;2024-03-02T13:22:37;49.63;;;46.92;;
26690;SDS011;14307;51.718;8.938;2024-03-02T13:25:04;48.15;;;45.35;;
26690;SDS011;14307;51.718;8.938;2024-03-02T13:27:33;47.40;;;44.83;;
26690;SDS011;14307;51.718;8.938;2024-03-02T13:30:01;47.00;;;44.40;;
26690;SDS011;14307;51.718;8.938;2024-03-02T13:32:29;48.05;;;45.25;;
26690;SDS011;14307;51.718;8.938;2024-03-02T13:34:56;50.30;;;47.42;;
26690;SDS011;14307;51.718;8.938;2024-03-02T13:37:23;49.42;;;46.80;;
26690;SDS011;14307;51.718;8.938;2024-03-02T13:39:50;47.33;;;44.83;;
26690;SDS011;14307;51.718;8.938;2024-03-02T13:42:17;47.45;;;44.88;;
26690;SDS011;14307;51.718;8.938;2024-03-02T13:44:45;48.28;;;45.65;;
26690;SDS011;14307;51.718;8.938;2024-03-02T13:47:13;48.70;;;46.17;;
26690;SDS011;14307;51.718;8.938;2024-03-02T13:49:41;49.30;;;46.80;;
26690;SDS011;14307;51.718;8.938;2024-03-02T13:52:12;51.72;;;48.95;;
26690;SDS011;14307;51.718;8.938;2024-03-02T13:54:40;48.92;;;46.33;;
26690;SDS011;14307;51.718;8.938;2024-03-02T13:57:09;49.72;;;46.92;;
26690;SDS011;14307;51.718;8.938;2024-03-02T13:59:37;48.15;;;45.38;;
26690;SDS011;14307;51.718;8.938;2024-03-02T14:02:05;47.47;;;44.97;;
26690;SDS011;14307;51.718;8.938;2024-03-02T14:04:33;52.60;;;49.70;;
26690;SDS011;14307;51.718;8.938;2024-03-02T14:07:01;49.00;;;46.17;;
26690;SDS011;14307;51.718;8.938;2024-03-02T14:09:29;49.72;;;47.05;;
26690;SDS011;14307;51.718;8.938;2024-03-02T14:11:57;47.72;;;44.92;;
26690;SDS011;14307;51.718;8.938;2024-03-02T14:14:24;49.95;;;47.25;;
26690;SDS011;14307;51.718;8.938;2024-03-02T14:16:51;49.72;;;47.15;;
26690;SDS011;14307;51.718;8.938;2024-03-02T14:19:19;48.15;;;45.45;;
26690;SDS011;14307;51.718;8.938;2024-03-02T14:21:47;46.88;;;44.38;;
26690;SDS011;14307;51.718;8.938;2024-03-02T14:24:14;46.45;;;43.72;;
26690;SDS011;14307;51.718;8.938;2024-03-02T14:26:41;42.72;;;40.30;;
26690;SDS011;14307;51.718;8.938;2024-03-02T14:29:08;46.97;;;44.38;;
26690;SDS011;14307;51.718;8.938;2024-03-02T14:31:36;47.13;;;44.72;;
26690;SDS011;14307;51.718;8.938;2024-03-02T14:34:03;47.85;;;45.35;;
26690;SDS011;14307;51.718;8.938;2024-03-02T14:36:30;46.53;;;44.00;;
26690;SDS011;14307;51.718;8.938;2024-03-02T14:38:57;46.28;;;43.67;;
26690;SDS011;14307;51.718;8.938;2024-03-02T14:41:24;44.70;;;42.30;;
26690;SDS011;14307;51.718;8.938;2024-03-02T14:43:51;46.35;;;43.85;;
26690;SDS011;14307;51.718;8.938;2024-03-02T14:46:19;44.28;;;41.90;;
26690;SDS011;14307;51.718;8.938;2024-03-02T14:48:46;43.22;;;40.63;;
26690;SDS011;14307;51.718;8.938;2024-03-02T14:51:14;43.25;;;40.85;;
26690;SDS011;14307;51.718;8.938;2024-03-02T14:53:41;43.10;;;40.72;;
26690;SDS011;14307;51.718;8.938;2024-03-02T14:56:09;43.03;;;40.65;;
26690;SDS011;14307;51.718;8.938;2024-03-02T14:58:36;41.03;;;38.83;;
26690;SDS011;14307;51.718;8.938;2024-03-02T15:01:03;42.38;;;40.17;;
26690;SDS011;14307;51.718;8.938;2024-03-02T15:03:35;46.63;;;44.13;;
26690;SDS011;14307;51.718;8.938;2024-03-02T15:06:03;43.90;;;41.15;;
26690;SDS011;14307;51.718;8.938;2024-03-02T15:08:30;42.42;;;40.03;;
26690;SDS011;14307;51.718;8.938;2024-03-02T15:10:58;42.58;;;40.20;;
26690;SDS011;14307;51.718;8.938;2024-03-02T15:13:28;44.85;;;42.45;;
26690;SDS011;14307;51.718;8.938;2024-03-02T15:15:55;45.65;;;43.13;;
26690;SDS011;14307;51.718;8.938;2024-03-02T15:18:22;47.75;;;44.75;;
26690;SDS011;14307;51.718;8.938;2024-03-02T15:20:50;46.88;;;44.38;;
26690;SDS011;14307;51.718;8.938;2024-03-02T15:23:18;44.40;;;42.15;;